Time;durP1;ratioP1;P1;durP2;ratioP2;P2;SDS_P1;SDS_P2;PMS_P1;PMS_P2;Temp;Humidity;BMP_temperature;BMP_pressure;BME280_temperature;BME280_humidity;BME280_pressure;Samples;Min_cycle;Max_cycle;Signal;HPM_P1;HPM_P2
2020/12/12 00:00:30;;;;;;;99.40;41.87;;;;;;;3.81;98.06;99126.00;4986399;28;20034;-79
2020/12/12 00:02:55;;;;;;;109.40;44.87;;;;;;;3.79;97.79;99129.31;4978869;28;20282;-78
2020/12/12 00:05:20;;;;;;;105.23;43.27;;;;;;;3.79;97.73;99136.94;5003046;23;20317;-84
2020/12/12 00:07:46;;;;;;;104.05;43.95;;;;;;;3.80;97.84;99129.34;4979824;28;20963;-85
2020/12/12 00:10:11;;;;;;;99.03;41.70;;;;;;;3.81;97.96;99135.28;4986057;28;20300;-83
2020/12/12 00:12:36;;;;;;;107.70;45.10;;;;;;;3.77;97.87;99129.28;4983647;28;20052;-82
2020/12/12 00:15:04;;;;;;;108.88;43.67;;;;;;;3.79;97.78;99132.72;4977623;28;20046;-85
2020/12/12 00:17:29;;;;;;;109.63;44.03;;;;;;;3.81;97.78;99135.28;4971406;28;20042;-85
2020/12/12 00:19:55;;;;;;;116.37;45.67;;;;;;;3.79;98.06;99129.31;4969239;28;20399;-83
2020/12/12 00:22:20;;;;;;;114.80;45.57;;;;;;;3.81;97.92;99137.84;4988932;28;20273;-83
2020/12/12 00:24:45;;;;;;;109.57;46.13;;;;;;;3.83;97.98;99138.72;4987462;28;20102;-83
2020/12/12 00:27:10;;;;;;;121.37;44.47;;;;;;;3.82;98.02;99137.00;4998067;28;20270;-81
2020/12/12 00:29:36;;;;;;;117.80;44.37;;;;;;;3.79;98.13;99134.41;4994032;28;20269;-83
2020/12/12 00:32:01;;;;;;;129.00;49.13;;;;;;;3.78;98.00;99136.09;4983716;28;20500;-81
2020/12/12 00:34:27;;;;;;;123.28;46.85;;;;;;;3.79;98.10;99137.81;4982605;28;20377;-84
2020/12/12 00:36:53;;;;;;;;;;;;;;;3.81;97.99;99138.69;5006104;28;20030;-82
2020/12/12 00:39:19;;;;;;;139.80;48.80;;;;;;;3.80;98.13;99138.66;4991216;28;19917;-83
2020/12/12 00:41:45;;;;;;;126.90;49.20;;;;;;;3.78;98.26;99132.69;5009211;28;20081;-81
2020/12/12 00:44:11;;;;;;;132.48;49.17;;;;;;;3.76;98.48;99130.13;4994250;28;20455;-83
2020/12/12 00:46:37;;;;;;;148.63;52.10;;;;;;;3.77;98.23;99134.38;4992945;28;20026;-82
2020/12/12 00:49:06;;;;;;;;;;;;;;;3.79;98.57;99139.47;4991492;28;20035;-81
2020/12/12 00:51:32;;;;;;;147.47;51.23;;;;;;;3.79;98.50;99145.41;4991325;28;19934;-83
2020/12/12 00:53:57;;;;;;;151.00;51.15;;;;;;;3.80;98.41;99133.59;5014329;28;20034;-83
2020/12/12 00:56:23;;;;;;;160.48;51.63;;;;;;;3.81;98.55;99135.28;4991529;28;20022;-82
2020/12/12 00:58:48;;;;;;;161.63;51.47;;;;;;;3.82;98.51;99137.00;4989665;28;20035;-83
2020/12/12 01:01:14;;;;;;;162.82;51.22;;;;;;;3.84;98.67;99137.91;4988819;28;20038;-81
2020/12/12 01:03:43;;;;;;;;;;;;;;;3.84;98.55;99140.44;5007758;28;20465;-80
2020/12/12 01:06:10;;;;;;;163.97;52.37;;;;;;;3.84;98.57;99133.69;4989683;28;19952;-83
2020/12/12 01:08:36;;;;;;;160.93;53.13;;;;;;;3.85;98.52;99143.00;5010116;28;20014;-83
2020/12/12 01:11:02;;;;;;;163.40;53.30;;;;;;;3.83;98.24;99133.66;5009101;28;20034;-83
2020/12/12 01:13:27;;;;;;;149.60;51.42;;;;;;;3.85;98.61;99143.00;4994593;28;20026;-84
2020/12/12 01:15:53;;;;;;;158.30;53.53;;;;;;;3.86;98.24;99146.41;5005283;28;20446;-82
2020/12/12 01:18:18;;;;;;;158.33;52.10;;;;;;;3.87;98.41;99148.13;4991194;28;20702;-84
2020/12/12 01:20:43;;;;;;;162.47;52.37;;;;;;;3.88;98.41;99153.25;4991327;28;20054;-84
2020/12/12 01:23:08;;;;;;;159.20;52.17;;;;;;;3.88;98.60;99152.38;4989256;28;20038;-82
2020/12/12 01:25:37;;;;;;;172.77;54.42;;;;;;;3.91;98.64;99155.03;4991538;28;20030;-84
2020/12/12 01:28:04;;;;;;;167.20;53.23;;;;;;;3.90;98.56;99156.72;5005709;28;20038;-82
2020/12/12 01:30:29;;;;;;;181.50;55.73;;;;;;;3.91;98.66;99166.03;5000568;28;20022;-83
2020/12/12 01:32:54;;;;;;;184.93;55.00;;;;;;;3.90;98.41;99166.88;4992865;28;20053;-84
2020/12/12 01:35:20;;;;;;;162.37;52.23;;;;;;;3.94;98.62;99167.78;4984320;28;20280;-81
2020/12/12 01:37:46;;;;;;;163.95;51.38;;;;;;;3.93;98.59;99172.03;4998634;28;20109;-82
2020/12/12 01:40:11;;;;;;;176.50;52.88;;;;;;;3.94;98.55;99167.78;4985383;28;20546;-81
2020/12/12 01:42:37;;;;;;;178.88;52.58;;;;;;;3.95;98.69;99174.59;4986357;28;20026;-82
2020/12/12 01:45:05;;;;;;;168.60;51.45;;;;;;;3.97;98.85;99172.94;4994040;28;20058;-79
2020/12/12 01:47:30;;;;;;;155.87;49.33;;;;;;;3.98;98.76;99175.53;4992063;28;20026;-80
2020/12/12 01:49:55;;;;;;;170.77;52.67;;;;;;;3.99;98.89;99176.38;4985042;28;20027;-80
2020/12/12 01:52:21;;;;;;;154.00;50.38;;;;;;;4.02;98.62;99190.00;4984405;28;20303;-79
2020/12/12 01:54:47;;;;;;;157.43;51.10;;;;;;;4.03;98.73;99191.72;4982128;28;20430;-80
2020/12/12 01:57:13;;;;;;;136.30;46.72;;;;;;;4.07;98.80;99190.97;4988756;28;20027;-80
2020/12/12 01:59:39;;;;;;;138.47;47.67;;;;;;;4.07;98.64;99202.81;4989730;28;20045;-80
2020/12/12 02:02:10;;;;;;;132.95;45.65;;;;;;;4.04;98.29;99202.75;4986905;28;20030;-80
2020/12/12 02:04:38;;;;;;;131.80;47.80;;;;;;;4.07;98.43;99202.81;4982730;28;20076;-80
2020/12/12 02:07:04;;;;;;;128.10;46.10;;;;;;;4.06;98.52;99196.00;4982213;28;20031;-79
2020/12/12 02:09:29;;;;;;;137.93;48.42;;;;;;;4.05;98.50;99204.47;4989931;28;20101;-80
2020/12/12 02:11:58;;;;;;;126.97;44.08;;;;;;;4.11;98.63;99196.97;5000316;28;20062;-81
2020/12/12 02:14:24;;;;;;;142.23;47.53;;;;;;;4.11;98.79;99196.13;4981409;28;20027;-81
2020/12/12 02:16:57;;;;;;;160.48;50.30;;;;;;;4.10;98.48;99195.25;4985895;28;20056;-80
2020/12/12 02:19:22;;;;;;;145.77;47.53;;;;;;;4.11;98.49;99206.28;4980142;28;20030;-79
2020/12/12 02:21:52;;;;;;;165.25;52.63;;;;;;;4.10;98.56;99202.88;4985826;28;20022;-79
2020/12/12 02:24:18;;;;;;;169.83;53.40;;;;;;;4.12;98.60;99206.31;4981322;28;20030;-80
2020/12/12 02:26:43;;;;;;;152.68;49.80;;;;;;;4.14;98.53;99199.56;4994962;28;20046;-80
2020/12/12 02:29:10;;;;;;;176.45;54.33;;;;;;;4.13;98.79;99200.41;4981222;28;20047;-79
2020/12/12 02:31:36;;;;;;;183.77;55.93;;;;;;;4.15;98.79;99197.91;4983962;28;20027;-79
2020/12/12 02:34:02;;;;;;;178.48;53.67;;;;;;;4.15;98.76;99202.97;4982087;28;20060;-80
2020/12/12 02:36:27;;;;;;;195.45;53.78;;;;;;;4.16;98.53;99209.78;4982403;28;20509;-80
2020/12/12 02:38:52;;;;;;;214.27;57.90;;;;;;;4.15;98.71;99211.47;4984617;28;20488;-80
2020/12/12 02:41:18;;;;;;;190.90;53.70;;;;;;;4.16;98.55;99208.09;4981473;28;20272;-80
2020/12/12 02:43:46;;;;;;;205.43;57.13;;;;;;;4.15;98.85;99203.84;4982586;28;20034;-81
2020/12/12 02:46:12;;;;;;;241.73;57.97;;;;;;;4.16;98.57;99210.63;4983008;28;20400;-81
2020/12/12 02:48:37;;;;;;;216.63;56.93;;;;;;;4.17;98.74;99209.81;4984061;28;20034;-81
2020/12/12 02:51:02;;;;;;;221.00;59.05;;;;;;;4.16;98.80;99208.09;4981078;28;20134;-79
2020/12/12 02:53:27;;;;;;;246.87;60.33;;;;;;;4.16;98.77;99205.56;4978837;28;20038;-80
2020/12/12 02:55:53;;;;;;;206.13;54.43;;;;;;;4.18;98.84;99210.66;4981217;28;20034;-79
2020/12/12 02:58:18;;;;;;;249.47;56.93;;;;;;;4.19;98.65;99210.69;4977452;28;20360;-82
2020/12/12 03:00:43;;;;;;;240.93;56.93;;;;;;;4.16;98.78;99215.72;4995216;28;20031;-79
2020/12/12 03:03:08;;;;;;;239.27;56.97;;;;;;;4.17;98.97;99221.66;4986417;28;20376;-79
2020/12/12 03:05:34;;;;;;;259.80;58.03;;;;;;;4.16;98.81;99217.41;5005163;28;20038;-82
2020/12/12 03:07:59;;;;;;;263.07;59.80;;;;;;;4.17;99.02;99222.50;4987833;28;20289;-80
2020/12/12 03:10:24;;;;;;;239.23;56.67;;;;;;;4.17;99.00;99227.59;4992331;28;20024;-80
2020/12/12 03:12:49;;;;;;;261.00;58.13;;;;;;;4.16;99.01;99223.34;4987838;28;20389;-79
2020/12/12 03:15:15;;;;;;;239.37;54.90;;;;;;;4.16;99.09;99223.34;4983399;28;20282;-79
2020/12/12 03:17:40;;;;;;;226.35;57.17;;;;;;;4.19;99.20;99223.41;4980674;28;20023;-80
2020/12/12 03:20:06;;;;;;;245.38;56.47;;;;;;;4.17;98.96;99222.50;4983926;28;20023;-81
2020/12/12 03:22:32;;;;;;;;;;;;;;;4.18;99.01;99223.38;4982125;28;20034;-81
2020/12/12 03:24:57;;;;;;;252.00;57.23;;;;;;;4.17;99.03;99230.13;5006723;28;20323;-80
2020/12/12 03:27:22;;;;;;;222.52;54.70;;;;;;;4.17;99.03;99237.75;4997701;28;20377;-79
2020/12/12 03:29:48;;;;;;;220.30;55.47;;;;;;;4.18;99.09;99229.31;4983241;28;20120;-81
2020/12/12 03:32:13;;;;;;;263.23;55.90;;;;;;;4.17;99.11;99237.75;5001218;28;20331;-77
2020/12/12 03:34:39;;;;;;;280.80;57.38;;;;;;;4.18;98.85;99239.47;5006587;28;20030;-77
2020/12/12 03:37:05;;;;;;;;;;;;;;;4.17;98.90;99239.44;4980148;28;20164;-80
2020/12/12 03:39:30;;;;;;;314.90;60.63;;;;;;;4.16;99.26;99238.59;4987547;28;19918;-78
2020/12/12 03:41:56;;;;;;;285.27;59.08;;;;;;;4.17;99.11;99247.94;4982135;28;20030;-80
2020/12/12 03:44:21;;;;;;;274.65;58.95;;;;;;;4.18;99.27;99244.56;4988628;28;20027;-79
2020/12/12 03:46:46;;;;;;;262.85;59.45;;;;;;;4.18;nan;99249.66;4988901;28;20058;-80
2020/12/12 03:49:12;;;;;;;298.50;59.37;;;;;;;4.21;98.98;99246.31;4984059;28;20022;-81
2020/12/12 03:51:37;;;;;;;306.45;58.33;;;;;;;4.20;99.08;99245.47;4996080;28;20122;-78
2020/12/12 03:54:02;;;;;;;323.83;61.70;;;;;;;4.21;99.02;99243.78;4981474;28;20045;-79
2020/12/12 03:56:28;;;;;;;254.15;58.38;;;;;;;4.24;98.92;99248.97;4995780;28;20019;-78
2020/12/12 03:58:53;;;;;;;292.27;59.13;;;;;;;4.23;99.47;99247.25;4990947;28;20030;-79
2020/12/12 04:01:18;;;;;;;275.17;56.67;;;;;;;4.24;99.17;99252.34;4983727;28;20027;-81
2020/12/12 04:03:44;;;;;;;337.73;62.88;;;;;;;4.22;99.05;99248.03;4993153;28;20034;-81
2020/12/12 04:06:09;;;;;;;406.20;63.93;;;;;;;4.22;99.15;99248.88;4985191;28;20054;-81
2020/12/12 04:08:34;;;;;;;350.02;63.25;;;;;;;4.23;99.26;99252.31;4984327;28;20635;-80
2020/12/12 04:11:01;;;;;;;368.63;64.95;;;;;;;4.24;99.14;99249.81;4999227;28;20036;-80
2020/12/12 04:13:27;;;;;;;281.03;60.40;;;;;;;4.29;99.32;99258.41;5003055;28;20117;-80
2020/12/12 04:15:53;;;;;;;292.60;64.78;;;;;;;4.30;99.45;99265.19;5003664;28;20093;-80
2020/12/12 04:18:18;;;;;;;405.30;66.65;;;;;;;4.29;99.13;99257.53;5002912;28;20085;-79
2020/12/12 04:20:43;;;;;;;318.55;64.35;;;;;;;4.33;99.40;99265.28;4986117;28;20027;-81
2020/12/12 04:23:09;;;;;;;367.87;63.33;;;;;;;4.31;99.33;99273.69;5001240;28;20088;-79
2020/12/12 04:25:34;;;;;;;337.92;61.10;;;;;;;4.33;99.43;99266.94;4981485;28;20029;-81
2020/12/12 04:27:59;;;;;;;453.43;69.40;;;;;;;4.30;99.18;99270.28;4983991;28;20121;-80
2020/12/12 04:30:24;;;;;;;351.60;62.70;;;;;;;4.32;99.34;99283.03;4982212;28;20027;-81
2020/12/12 04:32:50;;;;;;;334.90;61.83;;;;;;;4.35;99.14;99283.09;4980093;28;20791;-79
2020/12/12 04:35:15;;;;;;;373.03;64.80;;;;;;;4.33;99.38;99283.06;4980026;28;20027;-79
2020/12/12 04:37:40;;;;;;;387.75;65.63;;;;;;;4.34;99.46;99286.47;4979729;28;20031;-79
2020/12/12 04:40:09;;;;;;;431.17;68.77;;;;;;;4.36;99.25;99280.59;4989438;28;20026;-80
2020/12/12 04:42:35;;;;;;;452.43;64.93;;;;;;;4.34;99.34;99287.31;4987043;28;20022;-79
2020/12/12 04:45:01;;;;;;;;;;;;;;;4.34;99.17;99289.88;4981860;28;20103;-79
2020/12/12 04:47:27;;;;;;;425.47;69.87;;;;;;;4.36;99.39;99295.84;4986156;28;19949;-80
2020/12/12 04:49:53;;;;;;;498.08;71.20;;;;;;;4.37;99.15;99292.47;4981951;28;20072;-78
2020/12/12 04:52:23;;;;;;;472.38;69.85;;;;;;;4.40;99.30;99295.91;4988173;28;20388;-80
2020/12/12 04:54:50;;;;;;;390.53;65.30;;;;;;;4.42;99.24;99304.44;4987914;28;20048;-79
2020/12/12 04:57:15;;;;;;;361.43;60.10;;;;;;;4.44;99.65;99302.78;5009360;28;20026;-79
2020/12/12 04:59:42;;;;;;;401.52;62.33;;;;;;;4.43;99.20;99303.59;4997628;28;20476;-79
2020/12/12 05:02:12;;;;;;;389.23;62.53;;;;;;;4.43;99.45;99301.06;4984142;28;20030;-79
2020/12/12 05:04:39;;;;;;;449.17;68.97;;;;;;;4.44;99.54;99302.78;5000689;28;20026;-79
2020/12/12 05:07:04;;;;;;;388.20;65.67;;;;;;;4.46;99.51;99303.69;4986673;28;20037;-79
2020/12/12 05:09:29;;;;;;;412.02;64.93;;;;;;;4.44;99.62;99295.16;4983651;28;20023;-79
2020/12/12 05:11:55;;;;;;;417.70;66.87;;;;;;;4.43;99.52;99303.59;5002405;28;20026;-79
2020/12/12 05:14:20;;;;;;;432.50;64.90;;;;;;;4.47;99.74;99310.47;4990848;28;20326;-80
2020/12/12 05:16:46;;;;;;;338.13;58.80;;;;;;;4.47;99.54;99318.09;4986282;28;20034;-80
2020/12/12 05:19:15;;;;;;;351.73;60.00;;;;;;;4.43;99.50;99309.56;4991213;28;20666;-80
2020/12/12 05:21:51;;;;;;;256.10;54.50;;;;;;;4.55;99.58;99317.47;4988280;28;20026;-79
2020/12/12 05:24:16;;;;;;;305.05;52.80;;;;;;;4.54;99.32;99318.28;4992030;28;20079;-79
2020/12/12 05:26:44;;;;;;;316.63;55.97;;;;;;;4.51;99.74;99322.44;4983299;28;20030;-79
2020/12/12 05:29:11;;;;;;;281.40;51.50;;;;;;;4.51;99.62;99325.84;4996618;28;20015;-81
2020/12/12 05:31:38;;;;;;;325.03;51.07;;;;;;;4.56;99.47;99324.28;4986378;28;20030;-80
2020/12/12 05:34:15;;;;;;;245.25;49.22;;;;;;;4.50;99.68;99324.13;4977898;28;20082;-79
2020/12/12 05:36:42;;;;;;;289.63;48.20;;;;;;;4.52;99.25;99326.69;4991411;28;20030;-79
2020/12/12 05:39:10;;;;;;;191.60;44.00;;;;;;;4.52;99.38;99331.78;4992554;28;20471;-79
2020/12/12 05:41:35;;;;;;;321.23;48.17;;;;;;;4.52;99.39;99334.31;4985439;28;20038;-80
2020/12/12 05:44:01;;;;;;;427.50;53.92;;;;;;;4.49;99.45;99332.56;5009523;28;20027;-78
2020/12/12 05:46:26;;;;;;;365.77;51.67;;;;;;;4.50;99.54;99334.28;4989996;28;20032;-79
2020/12/12 05:48:52;;;;;;;319.10;48.42;;;;;;;4.54;99.53;99335.22;5007662;28;20026;-79
2020/12/12 05:51:18;;;;;;;273.10;42.57;;;;;;;4.53;99.63;99343.66;4994417;28;20080;-79
2020/12/12 05:53:45;;;;;;;243.33;40.90;;;;;;;4.53;99.40;99346.22;5007368;28;20345;-80
2020/12/12 05:56:14;;;;;;;202.03;36.70;;;;;;;4.54;99.48;99350.47;4997575;28;20519;-79
2020/12/12 05:58:43;;;;;;;129.50;34.80;;;;;;;4.53;99.23;99351.28;4991105;28;20035;-79
2020/12/12 06:01:18;;;;;;;289.67;38.60;;;;;;;4.50;99.44;99351.22;4992971;28;20026;-81
2020/12/12 06:03:51;;;;;;;112.97;33.47;;;;;;;4.49;99.18;99358.00;4989857;28;20063;-79
2020/12/12 06:06:22;;;;;;;177.67;33.53;;;;;;;4.50;99.67;99359.72;5019236;23;20047;-77
2020/12/12 06:08:59;;;;;;;212.77;33.90;;;;;;;4.49;99.55;99362.22;4994299;28;20023;-79
2020/12/12 06:11:27;;;;;;;77.13;29.47;;;;;;;4.52;99.52;99368.25;4996425;28;20030;-78
2020/12/12 06:13:57;;;;;;;208.03;36.17;;;;;;;4.52;99.60;99364.84;5000338;28;20500;-78
2020/12/12 06:16:25;;;;;;;118.77;33.33;;;;;;;4.55;99.46;99377.63;4993957;28;20041;-78
2020/12/12 06:18:59;;;;;;;125.10;31.73;;;;;;;4.53;99.16;99375.03;4988301;28;20033;-77
2020/12/12 06:21:25;;;;;;;122.20;33.03;;;;;;;4.54;99.73;99381.84;4988599;28;20022;-78
2020/12/12 06:23:52;;;;;;;179.57;39.45;;;;;;;4.49;99.50;99388.50;4986680;28;20026;-78
2020/12/12 06:26:25;;;;;;;238.50;46.83;;;;;;;4.46;99.62;99388.44;4989324;28;20030;-78
2020/12/12 06:28:53;;;;;;;238.83;45.47;;;;;;;4.47;99.34;99394.38;4988161;28;20030;-78
2020/12/12 06:31:19;;;;;;;312.87;51.87;;;;;;;4.44;99.39;99400.25;4987989;28;20036;-78
2020/12/12 06:33:49;;;;;;;270.42;50.85;;;;;;;4.46;99.55;99402.84;4988025;28;20100;-77
2020/12/12 06:36:31;;;;;;;267.87;53.50;;;;;;;4.49;99.40;99403.75;4989311;28;20041;-78
2020/12/12 06:39:16;;;;;;;239.73;52.57;;;;;;;4.58;99.48;99405.69;4989632;28;20030;-77
2020/12/12 06:41:42;;;;;;;240.77;50.60;;;;;;;4.56;99.52;99409.88;4992590;28;20030;-78
2020/12/12 06:44:07;;;;;;;338.38;55.80;;;;;;;4.53;99.51;99408.09;4992525;28;20041;-77
2020/12/12 06:46:53;;;;;;;310.23;54.10;;;;;;;4.53;99.49;99415.72;4992403;28;20030;-77
2020/12/12 06:49:18;;;;;;;420.30;59.07;;;;;;;4.52;99.55;99418.25;4991016;28;20091;-78
2020/12/12 06:51:44;;;;;;;383.67;60.80;;;;;;;4.52;99.43;99424.19;4992549;28;20022;-77
2020/12/12 06:54:10;;;;;;;543.42;64.25;;;;;;;4.54;99.63;99424.22;4991918;28;20037;-78
2020/12/12 06:56:35;;;;;;;438.73;59.28;;;;;;;4.58;99.42;99424.34;4990985;28;20110;-78
2020/12/12 06:59:22;;;;;;;458.50;61.93;;;;;;;4.57;99.40;99427.72;4991952;28;20069;-77
2020/12/12 07:01:59;;;;;;;435.43;66.90;;;;;;;4.58;99.42;99441.31;5006916;28;20311;-79
2020/12/12 07:04:35;;;;;;;461.77;67.60;;;;;;;4.59;99.61;99440.47;4990532;28;20022;-78
2020/12/12 07:07:10;;;;;;;508.70;71.25;;;;;;;4.62;99.61;99435.47;4988218;28;20033;-77
2020/12/12 07:09:39;;;;;;;244.03;54.70;;;;;;;4.65;99.38;99450.78;4991943;28;20018;-77
2020/12/12 07:12:06;;;;;;;506.27;67.80;;;;;;;4.67;99.46;99449.16;4991587;28;20034;-78
2020/12/12 07:14:32;;;;;;;381.93;61.47;;;;;;;4.68;99.28;99453.41;4990675;28;20391;-77
2020/12/12 07:16:59;;;;;;;422.77;55.85;;;;;;;4.75;99.75;99451.88;4992029;28;20023;-78
2020/12/12 07:19:32;;;;;;;305.07;50.10;;;;;;;4.81;99.61;99446.94;4990585;28;20052;-79
2020/12/12 07:21:58;;;;;;;273.93;48.47;;;;;;;4.77;99.63;99463.81;4991388;28;20023;-77
2020/12/12 07:24:24;;;;;;;459.23;57.83;;;;;;;4.74;99.54;99456.09;4993666;28;20038;-80
2020/12/12 07:26:51;;;;;;;201.23;47.13;;;;;;;4.83;99.66;99461.41;4993868;28;20018;-79
2020/12/12 07:29:16;;;;;;;257.40;45.27;;;;;;;4.88;99.81;99471.72;4994471;28;20031;-78
2020/12/12 07:31:43;;;;;;;379.23;49.13;;;;;;;4.77;99.75;99468.91;4992963;28;20060;-79
2020/12/12 07:34:08;;;;;;;313.30;48.53;;;;;;;4.77;99.50;99470.56;5008842;28;20038;-78
2020/12/12 07:36:34;;;;;;;447.67;55.33;;;;;;;4.74;99.26;99476.44;4991655;28;20128;-78
2020/12/12 07:39:06;;;;;;;214.53;45.67;;;;;;;4.93;99.57;99481.19;4991131;28;20487;-78
2020/12/12 07:41:33;;;;;;;303.50;45.10;;;;;;;4.90;99.67;99490.44;4990747;28;20125;-77
2020/12/12 07:43:58;;;;;;;332.80;48.33;;;;;;;4.86;99.45;99486.91;4992202;28;20450;-78
2020/12/12 07:46:40;;;;;;;351.75;46.67;;;;;;;4.85;99.45;99497.06;4991510;28;20034;-77
2020/12/12 07:49:08;;;;;;;311.33;47.60;;;;;;;4.85;99.37;99499.59;4988151;28;20109;-77
2020/12/12 07:51:34;;;;;;;242.77;41.23;;;;;;;4.97;99.51;99505.88;4988203;28;20034;-78
2020/12/12 07:54:11;;;;;;;159.35;37.65;;;;;;;4.93;99.40;99509.16;4990134;28;20069;-77
2020/12/12 07:56:37;;;;;;;188.70;36.33;;;;;;;4.90;99.36;99515.88;4990863;28;20048;-78
2020/12/12 07:59:07;;;;;;;418.90;44.90;;;;;;;4.86;99.62;99512.38;4989566;28;20508;-78
2020/12/12 08:01:32;;;;;;;199.60;38.67;;;;;;;4.88;99.60;99514.97;4990947;28;20038;-78
2020/12/12 08:03:57;;;;;;;189.48;39.13;;;;;;;5.02;99.64;99518.72;4990722;28;20034;-78
2020/12/12 08:06:26;;;;;;;415.90;43.30;;;;;;;5.02;99.56;99522.94;4991073;28;20040;-77
2020/12/12 08:08:55;;;;;;;185.53;37.10;;;;;;;5.04;99.29;99531.47;4990986;28;20030;-78
2020/12/12 08:11:21;;;;;;;132.17;38.00;;;;;;;5.03;99.47;99528.06;4989961;28;20113;-77
2020/12/12 08:13:48;;;;;;;137.10;35.88;;;;;;;5.03;99.49;99537.38;4990959;28;20028;-78
2020/12/12 08:16:25;;;;;;;169.55;35.78;;;;;;;4.99;99.32;99539.00;4991257;28;20027;-78
2020/12/12 08:19:01;;;;;;;276.17;36.93;;;;;;;4.96;99.27;99547.41;4989175;28;20391;-78
2020/12/12 08:21:26;;;;;;;272.60;38.90;;;;;;;4.98;99.10;99537.28;4990234;28;20035;-77
2020/12/12 08:23:51;;;;;;;194.07;40.87;;;;;;;5.11;99.27;99538.41;4989016;28;20036;-79
2020/12/12 08:26:19;;;;;;;309.55;44.70;;;;;;;5.23;99.16;99543.84;4989611;28;20125;-78
2020/12/12 08:28:45;;;;;;;340.03;44.80;;;;;;;5.19;99.34;99550.50;4988589;28;20605;-78
2020/12/12 08:31:16;;;;;;;359.42;46.58;;;;;;;5.18;99.45;99553.88;4990525;28;20105;-79
2020/12/12 08:33:43;;;;;;;169.63;37.70;;;;;;;5.20;99.36;99559.00;4990726;28;20541;-80
2020/12/12 08:36:15;;;;;;;218.90;42.43;;;;;;;5.28;99.25;99563.47;4990929;28;20030;-79
2020/12/12 08:38:41;;;;;;;281.10;43.07;;;;;;;5.37;99.57;99565.38;4988836;28;20056;-78
2020/12/12 08:41:11;;;;;;;462.67;47.83;;;;;;;5.41;99.45;99569.72;4990502;28;20491;-78
2020/12/12 08:43:37;;;;;;;546.67;51.93;;;;;;;5.45;99.45;99571.50;4989064;28;20026;-78
2020/12/12 08:46:03;;;;;;;359.73;48.60;;;;;;;5.58;99.73;99570.97;4988833;28;20399;-79
2020/12/12 08:48:33;;;;;;;322.60;45.42;;;;;;;5.56;99.31;99581.97;4990413;28;20026;-77
2020/12/12 08:51:00;;;;;;;376.07;46.60;;;;;;;5.56;99.28;99585.38;4989803;28;20480;-78
2020/12/12 08:53:31;;;;;;;275.37;45.53;;;;;;;5.69;99.20;99593.28;4989935;28;20036;-79
2020/12/12 08:56:14;;;;;;;261.00;47.37;;;;;;;5.72;99.29;99590.81;4989141;28;20033;-78
2020/12/12 08:58:44;;;;;;;393.47;45.37;;;;;;;5.82;99.35;99596.13;4990144;28;20125;-79
2020/12/12 09:01:19;;;;;;;161.97;42.80;;;;;;;5.85;99.17;99590.25;4992122;28;20038;-78
2020/12/12 09:03:56;;;;;;;361.80;44.30;;;;;;;5.93;99.25;99601.53;4993813;28;20090;-80
2020/12/12 09:06:23;;;;;;;430.50;48.17;;;;;;;5.93;99.30;99598.97;4991767;28;20113;-79
2020/12/12 09:09:03;;;;;;;340.10;43.37;;;;;;;5.99;99.31;99608.44;4991734;28;20026;-80
2020/12/12 09:11:28;;;;;;;397.43;43.50;;;;;;;6.05;99.14;99599.25;4994544;28;20488;-78
2020/12/12 09:13:54;;;;;;;214.35;41.28;;;;;;;6.10;99.44;99605.28;4992584;28;20033;-78
2020/12/12 09:16:19;;;;;;;204.07;39.30;;;;;;;6.20;99.31;99606.38;4992743;28;20099;-79
2020/12/12 09:18:46;;;;;;;225.32;40.83;;;;;;;6.30;99.22;99615.06;4990316;28;20036;-78
2020/12/12 09:21:11;;;;;;;254.80;38.90;;;;;;;6.30;99.23;99627.81;4991136;28;20030;-78
2020/12/12 09:23:37;;;;;;;217.10;38.20;;;;;;;6.32;99.32;99628.72;4990663;28;20772;-79
2020/12/12 09:26:03;;;;;;;203.13;37.28;;;;;;;6.34;99.41;99629.59;4992395;28;20056;-78
2020/12/12 09:28:28;;;;;;;257.58;41.38;;;;;;;6.31;99.14;99629.53;5007660;28;20053;-78
2020/12/12 09:30:54;;;;;;;323.52;39.67;;;;;;;6.33;99.42;99640.63;4991551;28;20507;-78
2020/12/12 09:33:19;;;;;;;193.32;37.25;;;;;;;6.33;99.43;99640.63;4989217;28;20487;-79
2020/12/12 09:35:44;;;;;;;194.37;37.77;;;;;;;6.48;99.17;99643.50;4989173;28;20022;-79
2020/12/12 09:38:09;;;;;;;174.27;37.47;;;;;;;6.59;99.17;99647.13;4989876;28;20303;-78
2020/12/12 09:40:35;;;;;;;195.02;35.80;;;;;;;6.56;99.27;99652.19;4989478;28;20527;-79
2020/12/12 09:43:01;;;;;;;152.83;36.50;;;;;;;6.63;98.96;99654.03;4990706;28;20064;-79
2020/12/12 09:45:26;;;;;;;158.13;33.40;;;;;;;6.65;98.95;99654.91;4988784;28;20026;-79
2020/12/12 09:47:51;;;;;;;141.77;34.17;;;;;;;6.75;99.24;99655.94;4986164;28;20651;-79
2020/12/12 09:50:16;;;;;;;167.55;36.38;;;;;;;6.70;99.30;99663.53;4988499;28;20058;-79
2020/12/12 09:52:42;;;;;;;216.27;35.67;;;;;;;6.72;99.15;99666.09;4990152;28;20034;-79
2020/12/12 09:55:07;;;;;;;212.97;34.03;;;;;;;6.76;99.24;99662.78;4989067;28;20281;-79
2020/12/12 09:57:33;;;;;;;189.35;36.03;;;;;;;6.79;99.33;99671.34;4989868;28;20037;-79
2020/12/12 09:59:58;;;;;;;149.90;34.30;;;;;;;6.92;99.17;99671.63;4989906;28;20098;-78
2020/12/12 10:02:23;;;;;;;187.87;31.70;;;;;;;6.91;98.93;99675.84;4988390;28;20037;-78
2020/12/12 10:04:48;;;;;;;176.33;33.97;;;;;;;6.95;99.32;99676.78;4988083;28;20615;-79
2020/12/12 10:07:17;;;;;;;146.20;33.15;;;;;;;7.03;99.26;99680.31;4989065;28;20022;-79
2020/12/12 10:09:42;;;;;;;119.40;32.30;;;;;;;7.03;99.09;99683.75;4988804;28;20026;-78
2020/12/12 10:12:07;;;;;;;166.30;33.38;;;;;;;6.98;99.11;99684.50;4987417;28;20042;-79
2020/12/12 10:14:33;;;;;;;165.38;32.72;;;;;;;7.02;99.00;99681.16;4986220;28;20109;-78
2020/12/12 10:16:58;;;;;;;126.03;33.00;;;;;;;6.99;98.84;99693.88;4988356;28;20098;-79
2020/12/12 10:19:23;;;;;;;116.57;32.40;;;;;;;7.01;98.80;99690.50;4987105;28;20837;-80
2020/12/12 10:21:49;;;;;;;101.22;32.53;;;;;;;7.13;98.92;99684.78;4987998;28;20105;-79
2020/12/12 10:24:14;;;;;;;97.80;31.08;;;;;;;7.11;98.82;99688.97;4986897;28;20152;-79
2020/12/12 10:26:39;;;;;;;103.30;31.20;;;;;;;7.15;98.90;99693.31;4988675;28;20058;-80
2020/12/12 10:29:06;;;;;;;105.63;30.83;;;;;;;7.20;99.02;99698.53;4986660;28;20273;-79
2020/12/12 10:31:31;;;;;;;96.40;31.80;;;;;;;7.19;98.94;99702.78;4988271;28;20269;-80
2020/12/12 10:33:57;;;;;;;107.27;30.10;;;;;;;7.22;98.73;99701.97;5003206;28;20554;-79
2020/12/12 10:36:22;;;;;;;118.67;29.47;;;;;;;7.25;98.99;99704.59;4987660;28;20269;-80
2020/12/12 10:38:48;;;;;;;95.22;29.20;;;;;;;7.31;99.08;99708.09;4987398;28;20056;-79
2020/12/12 10:41:14;;;;;;;103.73;29.57;;;;;;;7.40;98.80;99709.97;4987099;28;20049;-79
2020/12/12 10:43:39;;;;;;;85.03;29.07;;;;;;;7.41;98.90;99714.25;4987184;28;20550;-80
2020/12/12 10:46:04;;;;;;;92.28;28.90;;;;;;;7.44;98.68;99709.19;4987021;28;20022;-79
2020/12/12 10:48:30;;;;;;;88.60;30.33;;;;;;;7.47;98.45;99710.09;4986282;28;20018;-79
2020/12/12 10:50:55;;;;;;;98.45;29.40;;;;;;;7.59;98.36;99713.72;4986685;28;20046;-80
2020/12/12 10:53:20;;;;;;;106.13;31.00;;;;;;;7.59;98.41;99712.03;4986458;28;20046;-79
2020/12/12 10:55:46;;;;;;;92.78;27.33;;;;;;;7.66;98.39;99715.53;4987856;28;20034;-79
2020/12/12 10:58:11;;;;;;;82.50;30.53;;;;;;;7.72;98.15;99716.50;4995160;28;20033;-79
2020/12/12 11:00:45;;;;;;;90.43;31.10;;;;;;;7.75;98.27;99714.00;4999150;28;20852;-80
2020/12/12 11:03:13;;;;;;;87.07;29.42;;;;;;;7.88;98.08;99724.44;4997612;28;20304;-79
2020/12/12 11:05:38;;;;;;;78.13;30.00;;;;;;;7.91;97.58;99719.38;4996514;28;20092;-81
2020/12/12 11:08:04;;;;;;;86.50;29.45;;;;;;;7.92;97.30;99723.66;4994660;28;20511;-80
2020/12/12 11:10:30;;;;;;;87.35;29.73;;;;;;;8.00;96.97;99725.50;4993325;28;20454;-78
2020/12/12 11:12:55;;;;;;;102.60;32.20;;;;;;;8.02;96.90;99723.81;4994407;28;20036;-79
2020/12/12 11:15:20;;;;;;;94.43;31.13;;;;;;;8.11;97.10;99728.19;4994023;28;20026;-82
2020/12/12 11:17:46;;;;;;;94.65;30.40;;;;;;;8.14;96.41;99724.88;4996040;28;20305;-79